Time;durP1;ratioP1;P1;durP2;ratioP2;P2;SDS_P1;SDS_P2;PMS_P1;PMS_P2;Temp;Humidity;BMP_temperature;BMP_pressure;BME280_temperature;BME280_humidity;BME280_pressure;Samples;Min_cycle;Max_cycle;Signal;HPM_P1;HPM_P2
2022/10/06 00:00:20;;;;;;;3.75;0.73;;;14.00;99.90;;;;;;5069680;28;20405;-51
2022/10/06 00:02:45;;;;;;;4.70;0.43;;;14.00;99.90;;;;;;5064783;28;20028;-51
2022/10/06 00:05:11;;;;;;;1.90;0.10;;;13.90;99.90;;;;;;5069542;28;20040;-50
2022/10/06 00:07:37;;;;;;;1.90;0.20;;;13.90;99.90;;;;;;5059571;28;20036;-52
2022/10/06 00:10:04;;;;;;;2.97;0.20;;;14.00;99.90;;;;;;5058182;28;20409;-51
2022/10/06 00:12:47;;;;;;;5.97;0.70;;;13.90;99.90;;;;;;5082501;28;20042;-51
2022/10/06 00:15:15;;;;;;;6.72;0.70;;;13.90;99.90;;;;;;5070577;28;20106;-51
2022/10/06 00:17:40;;;;;;;4.05;0.30;;;13.90;99.90;;;;;;5067479;28;20047;-50
2022/10/06 00:20:07;;;;;;;5.93;0.40;;;13.90;99.90;;;;;;5070676;28;20037;-52
2022/10/06 00:22:41;;;;;;;1.38;0.30;;;13.90;99.90;;;;;;5065922;28;20041;-51
2022/10/06 00:25:09;;;;;;;5.18;0.60;;;13.90;99.90;;;;;;5061576;28;20034;-52
2022/10/06 00:27:37;;;;;;;2.55;0.40;;;13.80;99.90;;;;;;5069338;28;20044;-51
2022/10/06 00:30:04;;;;;;;7.47;0.22;;;13.80;99.90;;;;;;5061080;28;20032;-51
2022/10/06 00:32:30;;;;;;;2.45;0.45;;;13.80;99.90;;;;;;5063093;28;20033;-51
2022/10/06 00:34:58;;;;;;;2.72;0.30;;;13.70;99.90;;;;;;5061626;28;20044;-51
2022/10/06 00:37:25;;;;;;;2.95;0.40;;;13.70;99.90;;;;;;5068618;28;20033;-52
2022/10/06 00:39:50;;;;;;;4.85;0.40;;;13.70;99.90;;;;;;5068779;28;20466;-53
2022/10/06 00:42:54;;;;;;;4.90;0.40;;;13.70;99.90;;;;;;5070523;28;20075;-53
2022/10/06 00:45:42;;;;;;;7.80;0.70;;;13.70;99.90;;;;;;5071223;28;20127;-52
2022/10/06 00:48:14;;;;;;;4.88;0.50;;;13.60;99.90;;;;;;5060457;28;20147;-52
2022/10/06 00:50:41;;;;;;;4.13;0.60;;;13.60;99.90;;;;;;5056001;28;20043;-51
2022/10/06 00:53:07;;;;;;;3.30;0.50;;;13.60;99.90;;;;;;5063821;28;20041;-52
2022/10/06 00:55:32;;;;;;;4.47;0.40;;;13.60;99.90;;;;;;5067560;28;20040;-51
2022/10/06 00:57:59;;;;;;;4.20;0.60;;;13.50;99.90;;;;;;5060432;28;20055;-51
2022/10/06 01:00:25;;;;;;;3.90;0.60;;;13.50;99.90;;;;;;5063342;28;20051;-52
2022/10/06 01:03:15;;;;;;;6.38;0.57;;;13.50;99.90;;;;;;5060085;28;20383;-54
2022/10/06 01:05:46;;;;;;;3.92;0.30;;;13.50;99.90;;;;;;5050184;28;20538;-52
2022/10/06 01:08:12;;;;;;;5.13;0.50;;;13.50;99.90;;;;;;5051996;28;20375;-51
2022/10/06 01:10:37;;;;;;;2.63;0.52;;;13.50;99.90;;;;;;5063427;28;20036;-54
2022/10/06 01:13:03;;;;;;;6.75;0.45;;;13.50;99.90;;;;;;5068833;28;20332;-53
2022/10/06 01:15:29;;;;;;;4.10;0.50;;;13.50;99.90;;;;;;5071740;28;20043;-51
2022/10/06 01:18:06;;;;;;;6.13;0.55;;;13.50;99.90;;;;;;5069201;28;20135;-53
2022/10/06 01:20:34;;;;;;;2.85;0.50;;;13.50;99.90;;;;;;5057334;28;20413;-51
2022/10/06 01:23:08;;;;;;;6.40;1.13;;;13.40;99.90;;;;;;5069264;28;20051;-54
2022/10/06 01:25:34;;;;;;;8.98;0.90;;;13.40;99.90;;;;;;5071455;28;20040;-52
2022/10/06 01:28:02;;;;;;;8.00;0.80;;;13.40;99.90;;;;;;5071046;28;20051;-52
2022/10/06 01:30:49;;;;;;;4.63;0.60;;;13.40;99.90;;;;;;5064267;28;20032;-52
2022/10/06 01:33:16;;;;;;;4.70;0.45;;;13.30;99.90;;;;;;5051802;28;20487;-51
2022/10/06 01:35:47;;;;;;;8.80;0.68;;;13.30;99.90;;;;;;5053907;28;20132;-51
2022/10/06 01:38:13;;;;;;;2.90;0.50;;;13.30;99.90;;;;;;5057801;28;20083;-51
2022/10/06 01:40:39;;;;;;;8.30;0.50;;;13.20;99.90;;;;;;5051261;28;20037;-51
2022/10/06 01:43:04;;;;;;;5.47;0.97;;;13.20;99.90;;;;;;5069565;28;20036;-52
2022/10/06 01:45:30;;;;;;;5.30;0.37;;;13.20;99.90;;;;;;5069984;28;20303;-52
2022/10/06 01:47:56;;;;;;;9.23;0.80;;;13.20;99.90;;;;;;5071405;28;20266;-51
2022/10/06 01:50:21;;;;;;;4.32;0.93;;;13.20;99.90;;;;;;5070320;28;20040;-51
2022/10/06 01:52:47;;;;;;;7.23;0.83;;;13.20;99.90;;;;;;5070640;28;20033;-53
2022/10/06 01:55:13;;;;;;;7.50;0.40;;;13.10;99.90;;;;;;5051570;28;20283;-51
2022/10/06 01:57:40;;;;;;;6.70;0.65;;;13.10;99.90;;;;;;5050960;28;20040;-51
2022/10/06 02:00:07;;;;;;;3.30;0.45;;;13.10;99.90;;;;;;5055445;28;20055;-51
2022/10/06 02:02:32;;;;;;;12.85;0.85;;;13.10;99.90;;;;;;5068526;28;20044;-52
2022/10/06 02:04:58;;;;;;;6.53;0.53;;;13.10;99.90;;;;;;5050085;28;20249;-51
2022/10/06 02:07:23;;;;;;;10.48;0.82;;;13.10;99.90;;;;;;5059601;28;20333;-51
2022/10/06 02:09:49;;;;;;;8.20;0.83;;;13.10;99.90;;;;;;5062570;28;20487;-52
2022/10/06 02:12:14;;;;;;;7.30;0.70;;;13.00;99.90;;;;;;5060137;28;20299;-51
2022/10/06 02:14:40;;;;;;;6.28;0.40;;;13.00;99.90;;;;;;5065560;28;20452;-51
2022/10/06 02:17:06;;;;;;;3.97;0.75;;;13.00;99.90;;;;;;5068664;28;20032;-51
2022/10/06 02:19:31;;;;;;;10.07;1.42;;;13.00;99.90;;;;;;5059465;28;20044;-52
2022/10/06 02:21:57;;;;;;;7.93;1.00;;;12.90;99.90;;;;;;5059078;28;20054;-54
2022/10/06 02:24:23;;;;;;;7.88;0.93;;;12.90;99.90;;;;;;5069116;28;20070;-52
2022/10/06 02:26:48;;;;;;;7.72;1.15;;;12.90;99.90;;;;;;5068524;28;20028;-53
2022/10/06 02:29:14;;;;;;;8.23;0.80;;;12.90;99.90;;;;;;5070059;28;20064;-54
2022/10/06 02:31:40;;;;;;;4.55;0.82;;;12.80;99.90;;;;;;5070091;28;20041;-50
2022/10/06 02:34:05;;;;;;;4.68;0.55;;;12.80;99.90;;;;;;5065421;28;20033;-52
2022/10/06 02:36:31;;;;;;;7.60;0.82;;;12.80;99.90;;;;;;5050650;28;20132;-52
2022/10/06 02:38:56;;;;;;;8.45;1.02;;;12.80;99.90;;;;;;5050043;28;20041;-55
2022/10/06 02:41:22;;;;;;;5.13;0.55;;;12.70;99.90;;;;;;5053619;28;20033;-55
2022/10/06 02:43:48;;;;;;;14.13;1.95;;;12.70;99.90;;;;;;5070869;28;20041;-51
2022/10/06 02:46:14;;;;;;;12.35;1.33;;;12.80;99.90;;;;;;5050130;28;20066;-51
2022/10/06 02:48:39;;;;;;;;;;;12.70;99.90;;;;;;5055029;28;20284;-51
2022/10/06 02:51:14;;;;;;;5.80;0.70;;;12.70;99.90;;;;;;5067420;28;19916;-54
2022/10/06 02:53:42;;;;;;;13.00;1.30;;;12.70;99.90;;;;;;5057220;28;20520;-50
2022/10/06 02:56:16;;;;;;;7.45;1.88;;;12.70;99.90;;;;;;5049689;28;20051;-54
2022/10/06 02:58:43;;;;;;;10.07;1.45;;;12.70;99.90;;;;;;5055231;28;20036;-51
2022/10/06 03:01:14;;;;;;;7.90;0.68;;;12.70;99.90;;;;;;5059060;28;20040;-52
2022/10/06 03:03:40;;;;;;;13.88;1.02;;;12.60;99.90;;;;;;5054256;28;20077;-52
2022/10/06 03:06:20;;;;;;;9.98;1.27;;;12.60;99.90;;;;;;5063053;28;20146;-51
2022/10/06 03:08:54;;;;;;;9.45;0.75;;;12.60;99.90;;;;;;5066563;28;20032;-51
2022/10/06 03:11:22;;;;;;;7.82;0.93;;;12.60;99.90;;;;;;5053982;28;20112;-52
2022/10/06 03:13:49;;;;;;;6.28;0.80;;;12.60;99.90;;;;;;5067853;28;20816;-51
2022/10/06 03:16:16;;;;;;;10.18;1.48;;;12.50;99.90;;;;;;5063751;28;20048;-50
2022/10/06 03:18:48;;;;;;;13.80;0.73;;;12.50;99.90;;;;;;5064459;28;20120;-51
2022/10/06 03:21:14;;;;;;;7.70;0.77;;;12.50;99.90;;;;;;5067878;28;20052;-54
2022/10/06 03:23:42;;;;;;;6.88;1.05;;;12.50;99.90;;;;;;5067820;28;20036;-51
2022/10/06 03:26:07;;;;;;;9.05;0.90;;;12.40;99.90;;;;;;5064567;28;20045;-51
2022/10/06 03:28:33;;;;;;;8.73;1.00;;;12.40;99.90;;;;;;5067066;28;20111;-52
2022/10/06 03:31:03;;;;;;;7.40;0.60;;;12.40;99.90;;;;;;5059620;28;20705;-52
2022/10/06 03:33:29;;;;;;;5.93;0.68;;;12.40;99.90;;;;;;5065778;28;20035;-51
2022/10/06 03:36:04;;;;;;;8.35;1.17;;;12.40;99.90;;;;;;5058516;28;20037;-52
2022/10/06 03:38:33;;;;;;;8.98;1.42;;;12.30;99.90;;;;;;5064669;28;20037;-51
2022/10/06 03:41:04;;;;;;;13.52;1.10;;;12.30;99.90;;;;;;5059238;28;20111;-51
2022/10/06 03:43:30;;;;;;;9.98;0.98;;;12.30;99.90;;;;;;5065364;28;20039;-52
2022/10/06 03:45:57;;;;;;;10.73;1.10;;;12.30;99.90;;;;;;5072082;28;20040;-52
2022/10/06 03:48:23;;;;;;;10.48;1.30;;;12.20;99.90;;;;;;5068754;28;20036;-51
2022/10/06 03:50:56;;;;;;;13.00;1.38;;;12.20;99.90;;;;;;5067348;28;20032;-53
2022/10/06 03:53:24;;;;;;;6.93;0.77;;;12.20;99.90;;;;;;5062774;28;20126;-53
2022/10/06 03:56:05;;;;;;;9.98;1.27;;;12.20;99.90;;;;;;5062300;28;20072;-52
2022/10/06 03:58:33;;;;;;;8.20;1.00;;;12.20;99.90;;;;;;5060104;28;20072;-51
2022/10/06 04:01:13;;;;;;;8.10;1.00;;;12.10;99.90;;;;;;5055984;28;20127;-52
2022/10/06 04:03:39;;;;;;;6.80;1.00;;;12.10;99.90;;;;;;5052581;28;20056;-52
2022/10/06 04:06:08;;;;;;;10.82;0.60;;;12.10;99.90;;;;;;5067979;28;20033;-51
2022/10/06 04:08:34;;;;;;;8.40;1.33;;;12.10;99.90;;;;;;5071351;28;20029;-51
2022/10/06 04:11:11;;;;;;;10.55;1.50;;;12.10;99.90;;;;;;5072499;28;20040;-51
2022/10/06 04:13:38;;;;;;;13.52;1.25;;;12.00;99.90;;;;;;5072077;28;20040;-50
2022/10/06 04:16:19;;;;;;;;;;;12.00;99.90;;;;;;5058662;28;20486;-53
2022/10/06 04:18:48;;;;;;;11.57;1.10;;;12.00;99.90;;;;;;5054163;28;19924;-51
2022/10/06 04:21:15;;;;;;;14.95;1.88;;;11.90;99.90;;;;;;5066612;28;20405;-51
2022/10/06 04:23:41;;;;;;;9.93;0.82;;;11.90;99.90;;;;;;5051100;28;20051;-53
2022/10/06 04:26:11;;;;;;;9.52;0.75;;;11.90;99.90;;;;;;5060533;28;20040;-51
2022/10/06 04:28:38;;;;;;;7.32;1.23;;;11.90;99.90;;;;;;5072206;28;20032;-51
2022/10/06 04:31:06;;;;;;;11.38;2.35;;;11.90;99.90;;;;;;5057189;28;20029;-51
2022/10/06 04:33:33;;;;;;;13.00;1.63;;;11.80;99.90;;;;;;5059139;28;20067;-52
2022/10/06 04:36:00;;;;;;;16.58;1.92;;;11.90;99.90;;;;;;5069214;28;20277;-50
2022/10/06 04:38:28;;;;;;;16.40;1.15;;;11.80;99.90;;;;;;5058017;28;20397;-53
2022/10/06 04:40:54;;;;;;;13.20;1.60;;;11.80;99.90;;;;;;5065132;28;20048;-52
2022/10/06 04:43:19;;;;;;;11.50;1.60;;;11.80;99.90;;;;;;5066084;28;20417;-52
2022/10/06 04:45:45;;;;;;;7.27;0.57;;;11.80;99.90;;;;;;5069693;28;20041;-51
2022/10/06 04:48:11;;;;;;;12.17;1.07;;;11.80;99.90;;;;;;5061366;28;20881;-52
2022/10/06 04:50:36;;;;;;;11.73;1.37;;;11.80;99.90;;;;;;5063300;28;20562;-52
2022/10/06 04:53:02;;;;;;;9.03;1.10;;;11.80;99.90;;;;;;5053535;28;20036;-52
2022/10/06 04:55:28;;;;;;;10.13;1.00;;;11.70;99.90;;;;;;5062647;28;20295;-51
2022/10/06 04:57:54;;;;;;;8.23;0.85;;;11.70;99.90;;;;;;5070072;28;20185;-51
2022/10/06 05:00:22;;;;;;;15.18;2.03;;;11.70;99.90;;;;;;5053555;28;20040;-50
2022/10/06 05:02:48;;;;;;;6.15;0.75;;;11.70;99.90;;;;;;5061968;28;20060;-54
2022/10/06 05:05:14;;;;;;;11.23;1.30;;;11.70;99.90;;;;;;5068424;28;20073;-52
2022/10/06 05:07:42;;;;;;;11.85;0.77;;;11.70;99.90;;;;;;5066468;28;20286;-51
2022/10/06 05:10:07;;;;;;;10.48;1.63;;;11.70;99.90;;;;;;5053077;28;20037;-52
2022/10/06 05:12:33;;;;;;;8.83;1.00;;;11.60;99.90;;;;;;5062304;28;20078;-50
2022/10/06 05:14:58;;;;;;;9.63;1.10;;;11.70;99.90;;;;;;5069314;28;20969;-51
2022/10/06 05:17:24;;;;;;;8.60;1.57;;;11.60;99.90;;;;;;5055819;28;20040;-53
2022/10/06 05:19:49;;;;;;;9.13;0.87;;;11.60;99.90;;;;;;5052601;28;20294;-52
2022/10/06 05:22:15;;;;;;;7.93;0.97;;;11.60;99.90;;;;;;5060912;28;20287;-51
2022/10/06 05:24:40;;;;;;;11.07;0.97;;;11.60;99.90;;;;;;5049891;28;20120;-51
2022/10/06 05:27:06;;;;;;;9.17;0.80;;;11.60;99.90;;;;;;5053400;28;20045;-50
2022/10/06 05:29:33;;;;;;;14.73;1.60;;;11.60;99.90;;;;;;5050740;28;20480;-50
2022/10/06 05:31:58;;;;;;;10.50;1.40;;;11.60;99.90;;;;;;5064498;28;20286;-52
2022/10/06 05:34:24;;;;;;;9.90;1.13;;;11.50;99.90;;;;;;5052465;28;20149;-51
2022/10/06 05:36:50;;;;;;;10.13;0.90;;;11.50;99.90;;;;;;5064197;28;20036;-51
2022/10/06 05:39:15;;;;;;;6.30;0.67;;;11.50;99.90;;;;;;5057858;28;20118;-52
2022/10/06 05:41:41;;;;;;;4.93;1.20;;;11.40;99.90;;;;;;5065236;28;20321;-52
2022/10/06 05:44:07;;;;;;;5.28;0.80;;;11.50;99.90;;;;;;5051211;28;20107;-51
2022/10/06 05:46:33;;;;;;;;;;;11.50;99.90;;;;;;5064784;28;20401;-51
2022/10/06 05:49:05;;;;;;;13.45;0.80;;;11.50;99.90;;;;;;5054296;28;19917;-51
2022/10/06 05:51:33;;;;;;;7.65;0.70;;;11.50;99.90;;;;;;5053471;28;20524;-53
2022/10/06 05:53:59;;;;;;;11.60;1.20;;;11.50;99.90;;;;;;5053275;28;20036;-52
2022/10/06 05:56:27;;;;;;;9.45;1.33;;;11.50;99.90;;;;;;5057543;28;20036;-51
2022/10/06 05:58:54;;;;;;;19.80;1.45;;;11.50;99.90;;;;;;5051038;28;20398;-51
2022/10/06 06:01:26;;;;;;;12.10;1.05;;;11.50;99.90;;;;;;5053812;28;20146;-50
2022/10/06 06:04:06;;;;;;;11.10;1.05;;;11.60;99.90;;;;;;5050091;28;20411;-51
2022/10/06 06:06:39;;;;;;;13.43;2.20;;;11.70;99.90;;;;;;5058052;28;20037;-51
2022/10/06 06:09:16;;;;;;;7.72;1.27;;;11.80;99.90;;;;;;5050136;28;20033;-52
2022/10/06 06:11:44;;;;;;;10.05;4.03;;;11.90;99.90;;;;;;5063761;28;20440;-52
2022/10/06 06:14:12;;;;;;;13.85;8.23;;;12.00;99.90;;;;;;5069893;28;20405;-51
2022/10/06 06:16:39;;;;;;;12.02;5.75;;;12.10;99.90;;;;;;5068718;28;20059;-52
2022/10/06 06:19:07;;;;;;;11.80;4.43;;;12.30;99.90;;;;;;5068476;28;20171;-52
2022/10/06 06:21:33;;;;;;;22.42;20.20;;;12.60;99.90;;;;;;5051470;28;20063;-53
2022/10/06 06:23:58;;;;;;;10.60;1.88;;;12.80;99.90;;;;;;5050074;28;20053;-51
2022/10/06 06:26:29;;;;;;;5.00;1.00;;;13.10;99.90;;;;;;5052185;28;20041;-54
2022/10/06 06:29:01;;;;;;;10.25;1.30;;;13.40;99.90;;;;;;5061523;28;20048;-52
2022/10/06 06:31:32;;;;;;;6.65;1.20;;;13.70;99.90;;;;;;5068685;28;20043;-50
2022/10/06 06:34:00;;;;;;;8.88;1.65;;;14.00;99.90;;;;;;5069816;28;20391;-50
2022/10/06 06:36:39;;;;;;;7.53;0.93;;;14.20;99.90;;;;;;5068248;28;20452;-51
2022/10/06 06:39:10;;;;;;;16.85;2.58;;;14.40;99.90;;;;;;5059280;28;20060;-51
2022/10/06 06:41:38;;;;;;;12.98;1.52;;;14.70;99.90;;;;;;5057069;28;20037;-53
2022/10/06 06:44:07;;;;;;;7.78;1.75;;;15.00;99.90;;;;;;5059267;28;20072;-51
2022/10/06 06:46:34;;;;;;;13.10;1.67;;;15.10;99.90;;;;;;5052648;28;20047;-52
2022/10/06 06:49:03;;;;;;;6.60;0.93;;;15.30;99.90;;;;;;5052654;28;20040;-51
2022/10/06 06:51:33;;;;;;;12.73;1.20;;;15.50;99.90;;;;;;5060650;28;20382;-52
2022/10/06 06:54:01;;;;;;;9.80;1.20;;;15.60;99.90;;;;;;5070353;28;20611;-52
2022/10/06 06:56:27;;;;;;;10.63;1.35;;;15.50;99.90;;;;;;5062313;28;20448;-52
2022/10/06 06:58:53;;;;;;;9.07;1.15;;;15.30;99.90;;;;;;5061244;28;20906;-51
2022/10/06 07:01:20;;;;;;;9.38;1.17;;;15.10;99.90;;;;;;5067166;28;20036;-51
2022/10/06 07:03:51;;;;;;;13.98;1.40;;;14.90;99.90;;;;;;5059152;28;20032;-51
2022/10/06 07:06:17;;;;;;;8.63;1.08;;;14.60;99.90;;;;;;5049976;28;20041;-52
2022/10/06 07:08:44;;;;;;;7.88;0.60;;;14.40;99.90;;;;;;5049659;28;20037;-51
2022/10/06 07:11:22;;;;;;;9.75;1.42;;;14.30;99.90;;;;;;5055061;28;20416;-50
2022/10/06 07:13:55;;;;;;;9.73;0.90;;;14.20;99.90;;;;;;5050023;28;20072;-53
2022/10/06 07:27:24;;;;;;;9.43;0.82;;;14.00;99.90;;;;;;5051460;28;20041;-52
2022/10/06 07:29:53;;;;;;;12.98;1.52;;;14.00;99.90;;;;;;5058247;28;20047;-52
2022/10/06 07:32:21;;;;;;;9.60;0.85;;;14.00;99.90;;;;;;5065962;28;20045;-51
2022/10/06 07:34:47;;;;;;;13.30;1.42;;;14.00;99.90;;;;;;5059891;28;20482;-51
2022/10/06 07:37:13;;;;;;;7.53;0.90;;;14.00;99.90;;;;;;5053498;28;20040;-55
2022/10/06 07:39:39;;;;;;;10.85;1.33;;;14.00;99.90;;;;;;5068669;28;20043;-50
2022/10/06 07:42:14;;;;;;;14.10;1.37;;;14.10;99.90;;;;;;5066537;28;20052;-52
2022/10/06 07:45:36;;;;;;;14.55;1.67;;;14.10;99.90;;;;;;5060261;28;20303;-54
2022/10/06 07:47:30;;;;;;;9.82;1.25;;;14.20;99.90;;;;;;5052469;28;20049;-53
2022/10/06 07:49:57;;;;;;;;;;;14.10;99.90;;;;;;5066252;28;20037;-52
2022/10/06 07:52:27;;;;;;;8.27;1.05;;;14.20;99.90;;;;;;5055570;28;19939;-53
2022/10/06 07:54:54;;;;;;;10.13;0.93;;;14.30;99.90;;;;;;5065032;28;20463;-53
2022/10/06 07:57:19;;;;;;;;;;;14.30;99.90;;;;;;5054136;28;20116;-51
2022/10/06 07:59:45;;;;;;;11.02;1.60;;;14.40;99.90;;;;;;5053828;28;20007;-53
2022/10/06 08:02:10;;;;;;;9.85;1.42;;;14.40;99.90;;;;;;5053380;28;20036;-53
2022/10/06 08:04:36;;;;;;;11.00;1.63;;;14.50;99.90;;;;;;5053694;28;20045;-53
2022/10/06 08:07:02;;;;;;;6.30;0.77;;;14.50;99.90;;;;;;5073038;28;20043;-54
2022/10/06 08:09:29;;;;;;;7.68;1.25;;;14.50;99.90;;;;;;5072588;28;20040;-53
2022/10/06 08:11:55;;;;;;;11.57;1.55;;;14.50;99.90;;;;;;5061159;28;20041;-51
2022/10/06 08:14:21;;;;;;;35.75;6.35;;;14.50;99.90;;;;;;5060592;28;20098;-53
2022/10/06 08:16:47;;;;;;;9.90;1.48;;;14.60;99.90;;;;;;5053514;28;20075;-54
2022/10/06 08:19:13;;;;;;;10.00;1.52;;;14.60;99.90;;;;;;5052533;28;20068;-54
2022/10/06 08:21:39;;;;;;;16.67;2.05;;;14.60;99.90;;;;;;5068829;28;20044;-56
2022/10/06 08:24:05;;;;;;;22.55;3.28;;;14.60;99.90;;;;;;5067565;28;20043;-52
2022/10/06 08:26:32;;;;;;;31.85;2.65;;;14.70;99.90;;;;;;5056530;28;20116;-55
2022/10/06 08:29:01;;;;;;;8.00;1.23;;;14.80;99.90;;;;;;5065328;28;20041;-54
2022/10/06 08:31:28;;;;;;;9.32;1.10;;;14.80;99.90;;;;;;5058284;28;20041;-51
2022/10/06 08:33:55;;;;;;;16.67;1.45;;;14.90;99.90;;;;;;5052774;28;20509;-51
2022/10/06 08:36:23;;;;;;;12.02;1.88;;;14.90;99.90;;;;;;5065757;28;20033;-54
2022/10/06 08:38:51;;;;;;;11.52;1.50;;;15.00;99.90;;;;;;5072198;28;20040;-53
2022/10/06 08:41:27;;;;;;;9.25;1.10;;;15.10;99.90;;;;;;5062768;28;20042;-54
2022/10/06 08:43:58;;;;;;;11.10;0.70;;;15.10;99.90;;;;;;5071648;28;20041;-54
2022/10/06 08:46:29;;;;;;;12.77;1.70;;;15.20;99.90;;;;;;5061924;28;20517;-55
2022/10/06 08:48:57;;;;;;;7.65;1.30;;;15.30;99.90;;;;;;5051365;28;20059;-53
2022/10/06 08:51:42;;;;;;;16.65;1.30;;;15.30;99.90;;;;;;5063145;28;20036;-54
2022/10/06 08:54:14;;;;;;;11.32;0.85;;;15.40;99.90;;;;;;5071566;28;20044;-54
2022/10/06 08:57:02;;;;;;;14.98;2.20;;;15.40;99.90;;;;;;5070166;28;20509;-55
2022/10/06 08:59:32;;;;;;;10.43;1.20;;;15.50;99.90;;;;;;5054377;28;20048;-53
2022/10/06 09:01:58;;;;;;;10.88;1.13;;;15.60;99.90;;;;;;5064548;28;20111;-54
2022/10/06 09:04:28;;;;;;;6.45;0.93;;;15.60;99.90;;;;;;5071648;28;20569;-56
2022/10/06 09:07:02;;;;;;;23.27;1.52;;;15.70;99.90;;;;;;5062658;28;20047;-54
2022/10/06 09:09:54;;;;;;;10.70;1.35;;;15.80;99.90;;;;;;5059218;28;20033;-55
2022/10/06 09:12:40;;;;;;;15.63;1.88;;;15.90;99.90;;;;;;5066335;28;20046;-54
2022/10/06 09:15:43;;;;;;;10.88;1.00;;;16.00;99.90;;;;;;5057665;28;20060;-53
2022/10/06 09:18:21;;;;;;;11.82;1.05;;;16.00;99.90;;;;;;5062606;28;20107;-53
2022/10/06 09:20:57;;;;;;;10.35;1.00;;;16.00;99.90;;;;;;5064177;28;20050;-54
2022/10/06 09:26:11;;;;;;;10.77;1.50;;;16.00;99.90;;;;;;5067121;28;20413;-54
2022/10/06 09:28:37;;;;;;;6.72;1.02;;;15.90;99.90;;;;;;5060850;28;20056;-54
2022/10/06 09:31:36;;;;;;;8.20;1.58;;;15.90;99.90;;;;;;5070456;28;20401;-52
2022/10/06 09:34:12;;;;;;;11.90;1.83;;;16.00;99.90;;;;;;5068973;28;20612;-53
2022/10/06 09:36:59;;;;;;;9.32;1.13;;;16.00;99.90;;;;;;5068355;28;20635;-53
2022/10/06 09:39:37;;;;;;;9.98;1.23;;;16.00;99.90;;;;;;5070648;28;20029;-52
2022/10/06 09:42:16;;;;;;;12.57;1.38;;;16.10;99.90;;;;;;5061517;28;20486;-54
2022/10/06 09:44:55;;;;;;;8.70;1.13;;;16.20;99.90;;;;;;5049058;28;20091;-53
2022/10/06 09:47:34;;;;;;;9.02;1.05;;;16.30;99.90;;;;;;5051578;28;20063;-52
2022/10/06 09:50:19;;;;;;;14.57;1.92;;;16.30;99.90;;;;;;5063957;28;20043;-52
2022/10/06 09:53:09;;;;;;;9.18;1.35;;;16.30;99.90;;;;;;5058577;28;20215;-51
2022/10/06 09:55:38;;;;;;;6.72;0.63;;;16.30;99.90;;;;;;5049667;28;20390;-54
2022/10/06 09:58:21;;;;;;;12.10;1.58;;;16.30;99.90;;;;;;5055889;28;20063;-52
2022/10/06 10:00:56;;;;;;;7.65;0.70;;;16.30;99.90;;;;;;5051233;28;20123;-52
2022/10/06 10:03:25;;;;;;;13.68;0.93;;;16.30;99.90;;;;;;5050275;28;20045;-51
2022/10/06 10:05:53;;;;;;;7.93;0.98;;;16.30;99.90;;;;;;5064016;28;20040;-54
2022/10/06 10:08:29;;;;;;;9.77;0.93;;;16.30;99.90;;;;;;5062768;28;20508;-50
2022/10/06 10:12:23;;;;;;;11.00;0.98;;;16.40;99.90;;;;;;5049659;28;20702;-52
2022/10/06 10:13:54;;;;;;;10.32;1.15;;;16.40;99.70;;;;;;5049991;28;20401;-52
2022/10/06 10:16:34;;;;;;;7.50;0.80;;;16.40;99.70;;;;;;5051626;28;20049;-54
2022/10/06 10:19:04;;;;;;;9.40;1.25;;;16.30;99.50;;;;;;5066812;28;20538;-51
2022/10/06 10:21:32;;;;;;;6.97;1.00;;;16.30;99.70;;;;;;5057321;28;20045;-51
2022/10/06 10:24:01;;;;;;;10.57;0.93;;;16.40;99.60;;;;;;5058692;28;20079;-54
2022/10/06 10:26:52;;;;;;;8.75;0.47;;;16.60;99.60;;;;;;5055929;28;20024;-53
2022/10/06 10:29:21;;;;;;;8.00;0.77;;;16.80;99.90;;;;;;5060682;28;20042;-53
2022/10/06 10:32:07;;;;;;;4.45;1.02;;;17.10;99.60;;;;;;5060707;28;20382;-54
2022/10/06 10:34:43;;;;;;;5.97;0.40;;;17.20;99.10;;;;;;5070089;28;20032;-54
2022/10/06 10:37:11;;;;;;;11.20;1.35;;;17.30;98.60;;;;;;5069586;28;20047;-54
2022/10/06 10:39:47;;;;;;;5.65;0.50;;;17.30;98.30;;;;;;5070134;28;20127;-53
2022/10/06 10:42:36;;;;;;;5.28;0.77;;;17.30;98.30;;;;;;5070127;28;20520;-54
2022/10/06 10:45:05;;;;;;;6.43;0.57;;;17.50;98.70;;;;;;5069401;28;20060;-54
2022/10/06 10:47:37;;;;;;;5.90;0.40;;;17.60;98.40;;;;;;5069756;28;20032;-54
2022/10/06 10:50:30;;;;;;;4.40;0.98;;;17.70;97.90;;;;;;5070114;28;20397;-54
2022/10/06 10:53:06;;;;;;;7.53;0.40;;;17.70;97.80;;;;;;5069797;28;20063;-54
2022/10/06 10:55:45;;;;;;;5.28;0.60;;;17.70;97.20;;;;;;5070209;28;20158;-54
2022/10/06 10:58:22;;;;;;;3.22;0.47;;;17.50;96.80;;;;;;5069544;28;20059;-53
2022/10/06 11:00:54;;;;;;;5.15;1.20;;;17.40;96.80;;;;;;5070008;28;20041;-54
2022/10/06 11:03:19;;;;;;;7.25;0.45;;;17.30;97.20;;;;;;5069756;28;20041;-54
2022/10/06 11:06:10;;;;;;;9.63;1.30;;;17.20;97.20;;;;;;5068470;28;20040;-51
2022/10/06 11:08:56;;;;;;;4.50;0.55;;;17.20;97.50;;;;;;5069700;28;20040;-54
2022/10/06 11:11:37;;;;;;;6.97;0.80;;;17.20;97.20;;;;;;5069610;28;20043;-51
2022/10/06 11:14:17;;;;;;;8.15;0.80;;;17.10;97.20;;;;;;5069551;28;20063;-51
2022/10/06 11:17:02;;;;;;;6.05;0.70;;;17.10;97.60;;;;;;5069344;28;20488;-54
2022/10/06 11:20:02;;;;;;;6.30;0.57;;;17.10;97.40;;;;;;5070227;28;20159;-52
2022/10/06 11:22:37;;;;;;;9.88;1.17;;;17.20;97.20;;;;;;5072940;28;20055;-54
2022/10/06 11:25:19;;;;;;;5.40;0.55;;;17.20;97.40;;;;;;5073000;28;20036;-54
2022/10/06 11:28:18;;;;;;;9.85;0.80;;;17.30;97.30;;;;;;5073828;28;20123;-51
2022/10/06 11:31:10;;;;;;;6.10;0.60;;;17.40;97.20;;;;;;5073566;28;20032;-52
2022/10/06 11:33:47;;;;;;;2.97;0.35;;;17.50;96.70;;;;;;5072902;28;20048;-51
2022/10/06 11:36:39;;;;;;;6.55;0.80;;;17.50;96.60;;;;;;5073595;28;20033;-52
2022/10/06 11:39:22;;;;;;;4.78;0.63;;;17.60;96.90;;;;;;5064970;28;20505;-52
2022/10/06 11:42:08;;;;;;;9.93;0.88;;;17.70;96.50;;;;;;5073174;28;20036;-51
2022/10/06 11:44:43;;;;;;;4.18;0.38;;;17.80;96.40;;;;;;5072748;28;20037;-54
2022/10/06 11:47:19;;;;;;;7.53;1.02;;;17.70;96.10;;;;;;5073301;28;20047;-53
2022/10/06 11:49:50;;;;;;;7.00;1.00;;;17.70;96.00;;;;;;5073284;28;20490;-52
2022/10/06 11:52:16;;;;;;;8.13;0.90;;;17.70;96.50;;;;;;5072699;28;20271;-52
2022/10/06 11:54:44;;;;;;;7.13;0.43;;;17.80;95.90;;;;;;5072935;28;20175;-55
2022/10/06 11:57:22;;;;;;;6.05;0.57;;;17.90;95.40;;;;;;5073481;28;20048;-52
2022/10/06 12:00:15;;;;;;;6.80;0.55;;;17.90;95.30;;;;;;5072909;28;20501;-54
2022/10/06 12:02:42;;;;;;;8.23;0.40;;;18.00;95.50;;;;;;5072407;28;20041;-53
2022/10/06 12:05:14;;;;;;;4.63;0.40;;;18.00;95.00;;;;;;5072871;28;20070;-51
2022/10/06 12:07:54;;;;;;;8.75;0.60;;;18.00;95.10;;;;;;5071443;28;20075;-54
2022/10/06 12:10:28;;;;;;;12.48;1.58;;;18.10;95.50;;;;;;5072964;28;20047;-54
2022/10/06 12:13:06;;;;;;;7.80;0.35;;;18.40;95.80;;;;;;5072073;28;20119;-55
2022/10/06 12:15:55;;;;;;;7.80;0.60;;;18.50;95.70;;;;;;5073025;28;20040;-54
2022/10/06 12:18:40;;;;;;;3.70;0.50;;;18.70;95.00;;;;;;5072992;28;20044;-54
2022/10/06 12:21:23;;;;;;;3.83;0.60;;;18.70;94.00;;;;;;5072834;28;20508;-55
2022/10/06 12:24:03;;;;;;;7.35;0.60;;;18.70;94.10;;;;;;5072396;28;20382;-54
2022/10/06 12:27:08;;;;;;;7.38;0.90;;;18.70;93.70;;;;;;5071387;28;20036;-52
2022/10/06 12:29:51;;;;;;;5.15;0.40;;;18.70;93.30;;;;;;5057332;28;20135;-53
2022/10/06 12:32:35;;;;;;;8.07;0.90;;;18.60;92.90;;;;;;5072157;28;20089;-52
2022/10/06 12:35:07;;;;;;;7.53;1.15;;;18.50;93.60;;;;;;5072354;28;20032;-51
2022/10/06 12:37:43;;;;;;;4.00;0.55;;;18.50;93.30;;;;;;5072518;28;20067;-54
2022/10/06 12:40:46;;;;;;;7.68;0.93;;;18.60;93.20;;;;;;5072865;28;20044;-54
2022/10/06 12:43:13;;;;;;;5.25;0.52;;;18.60;93.30;;;;;;5072118;28;20472;-51
2022/10/06 12:46:09;;;;;;;10.63;0.95;;;18.70;93.60;;;;;;5071307;28;20052;-53
2022/10/06 12:49:10;;;;;;;5.20;0.40;;;18.60;93.00;;;;;;5063142;28;20044;-52
2022/10/06 12:51:45;;;;;;;8.25;0.52;;;18.70;93.70;;;;;;5072385;28;20040;-53
2022/10/06 12:54:33;;;;;;;10.80;0.95;;;18.80;93.80;;;;;;5072063;28;20045;-53
2022/10/06 12:57:01;;;;;;;6.80;0.47;;;18.90;93.10;;;;;;5072092;28;20123;-53
2022/10/06 12:59:31;;;;;;;8.25;1.10;;;18.90;92.50;;;;;;5071994;28;20123;-54
2022/10/06 13:01:59;;;;;;;3.88;0.30;;;18.90;92.10;;;;;;5070661;28;20072;-52
2022/10/06 13:04:41;;;;;;;5.65;0.80;;;18.80;92.00;;;;;;5071742;28;20127;-55
2022/10/06 13:07:22;;;;;;;2.40;0.60;;;18.70;91.70;;;;;;5071676;28;20048;-53
2022/10/06 13:09:51;;;;;;;4.35;0.30;;;18.80;92.60;;;;;;5071773;28;20045;-54
2022/10/06 13:12:30;;;;;;;9.10;0.40;;;18.80;93.00;;;;;;5071744;28;20198;-53
2022/10/06 13:15:23;;;;;;;8.35;0.68;;;18.90;92.90;;;;;;5071200;28;20078;-53
2022/10/06 13:17:58;;;;;;;4.30;0.60;;;19.00;92.30;;;;;;5062162;28;20053;-52
2022/10/06 13:20:45;;;;;;;7.35;0.85;;;18.90;91.50;;;;;;5071606;28;20382;-55
2022/10/06 13:23:26;;;;;;;6.07;0.93;;;18.90;91.20;;;;;;5071496;28;20543;-53